Terminal Aerodrome Forecast
Issued by NWS

Home | Current Version | Previous Version | Text Only | Print | Product List | Glossary On
Versions: 1 2 3 4 5 6 7 8 9 10 11 12 13 14 15 16 17 18 19 20 21 22 23 24
000
FTUS46 KMTR 021120
TAFSFO
TAF
KSFO 021120Z 0212/0318 29009KT P6SM VCSH FEW004 SCT050 BKN100
     FM021700 27009KT P6SM FEW012 BKN200
     FM022100 28017KT P6SM BKN200
     FM030500 28010KT P6SM SCT200
     FM030900 28007KT P6SM BKN015
     FM031200 28007KT P6SM OVC007=

USA.gov is the U.S. government's official web portal to all federal, state and local government web resources and services.